createdAt,value
2022-11-09T00:01:40.597Z,6.94
2022-11-09T00:04:09.145Z,6.96
2022-11-09T00:06:36.084Z,6.79
2022-11-09T00:09:07.924Z,6.80
2022-11-09T00:11:36.123Z,6.70
2022-11-09T00:14:02.685Z,6.65
2022-11-09T00:16:29.223Z,6.58
2022-11-09T00:18:55.748Z,6.63
2022-11-09T00:21:25.320Z,6.59
2022-11-09T00:23:52.475Z,6.69
2022-11-09T00:26:20.089Z,6.67
2022-11-09T00:28:47.150Z,6.66
2022-11-09T00:31:15.687Z,6.67
2022-11-09T00:33:42.220Z,6.59
2022-11-09T00:36:11.854Z,6.61
2022-11-09T00:38:40.384Z,6.65
2022-11-09T00:41:08.651Z,6.65
2022-11-09T00:43:35.252Z,6.58
2022-11-09T00:46:02.162Z,6.62
2022-11-09T00:48:29.415Z,6.83
2022-11-09T00:50:57.253Z,6.86
2022-11-09T00:53:24.450Z,6.87
2022-11-09T00:55:59.696Z,6.78
2022-11-09T00:58:28.097Z,6.91
2022-11-09T01:00:56.232Z,7.09
2022-11-09T01:03:23.619Z,7.07
2022-11-09T01:05:50.703Z,7.10
2022-11-09T01:08:17.763Z,7.15
2022-11-09T01:10:46.247Z,7.19
2022-11-09T01:13:16.468Z,7.27
2022-11-09T01:15:44.972Z,7.33
2022-11-09T01:18:12.160Z,7.32
2022-11-09T01:20:39.819Z,7.26
2022-11-09T01:23:06.366Z,7.30
2022-11-09T01:25:33.128Z,7.38
2022-11-09T01:27:59.919Z,7.53
2022-11-09T01:30:27.848Z,7.63
2022-11-09T01:32:54.488Z,7.64
2022-11-09T01:35:21.033Z,7.65
2022-11-09T01:37:47.551Z,7.71
2022-11-09T01:40:14.119Z,7.78
2022-11-09T01:42:40.694Z,7.80
2022-11-09T01:45:29.500Z,7.97
2022-11-09T01:48:04.465Z,7.96
2022-11-09T01:50:41.202Z,7.84
2022-11-09T01:53:11.997Z,7.80
2022-11-09T01:55:39.296Z,7.80
2022-11-09T01:58:08.619Z,7.65
2022-11-09T02:00:41.998Z,7.60
2022-11-09T02:03:14.683Z,7.53
2022-11-09T02:05:42.534Z,7.53
2022-11-09T02:08:11.093Z,7.44
2022-11-09T02:10:43.490Z,7.44
2022-11-09T02:13:13.498Z,7.49
2022-11-09T02:15:45.455Z,7.51
2022-11-09T02:18:12.716Z,7.54
2022-11-09T02:20:48.788Z,7.51
2022-11-09T02:23:15.957Z,7.48
2022-11-09T02:25:46.598Z,7.58
2022-11-09T02:28:14.269Z,7.62
2022-11-09T02:30:42.732Z,7.69
2022-11-09T02:33:09.258Z,7.90
2022-11-09T02:35:35.778Z,7.90
2022-11-09T02:38:03.781Z,7.87
2022-11-09T02:40:35.426Z,7.94
2022-11-09T02:43:02.703Z,7.91
2022-11-09T02:45:29.247Z,7.94
2022-11-09T02:47:55.830Z,8.07
2022-11-09T02:50:22.526Z,8.08
2022-11-09T02:52:49.157Z,8.21
2022-11-09T02:55:17.069Z,8.25
2022-11-09T02:57:43.640Z,8.24
2022-11-09T03:00:11.286Z,8.20
2022-11-09T03:02:38.054Z,8.21
2022-11-09T03:05:05.312Z,8.10
2022-11-09T03:07:31.831Z,8.12
2022-11-09T03:09:58.388Z,8.06
2022-11-09T03:12:26.267Z,8.01
2022-11-09T03:14:52.916Z,7.91
2022-11-09T03:17:19.452Z,7.84
2022-11-09T03:19:45.972Z,7.88
2022-11-09T03:22:12.507Z,7.81
2022-11-09T03:24:39.047Z,7.83
2022-11-09T03:27:05.611Z,7.88
2022-11-09T03:29:33.566Z,7.87
2022-11-09T03:32:00.205Z,7.93
2022-11-09T03:34:26.729Z,7.86
2022-11-09T03:36:53.811Z,7.93
2022-11-09T03:39:20.356Z,8.03
2022-11-09T03:41:46.923Z,8.00
2022-11-09T03:44:13.432Z,7.84
2022-11-09T03:46:41.462Z,7.84
2022-11-09T03:49:08.087Z,7.91
2022-11-09T03:51:34.623Z,7.96
2022-11-09T03:54:01.162Z,8.10
2022-11-09T03:56:27.717Z,7.96
2022-11-09T03:58:54.342Z,7.92
2022-11-09T04:01:20.972Z,7.88
2022-11-09T04:03:48.918Z,7.92
2022-11-09T04:06:15.423Z,8.09
2022-11-09T04:08:44.654Z,8.02
2022-11-09T04:11:13.623Z,8.00
2022-11-09T04:13:40.135Z,7.95
2022-11-09T04:16:07.044Z,7.81
2022-11-09T04:18:33.599Z,7.79
2022-11-09T04:21:01.454Z,7.84
2022-11-09T04:23:28.024Z,7.75
2022-11-09T04:25:54.571Z,7.89
2022-11-09T04:28:21.238Z,7.81
2022-11-09T04:30:47.784Z,7.81
2022-11-09T04:33:14.352Z,7.93
2022-11-09T04:35:40.908Z,7.88
2022-11-09T04:38:12.187Z,7.81
2022-11-09T04:40:39.474Z,7.84
2022-11-09T04:43:10.792Z,7.82
2022-11-09T04:45:37.350Z,7.80
2022-11-09T04:48:06.026Z,7.84
2022-11-09T04:50:33.118Z,7.81
2022-11-09T04:53:09.786Z,7.88
2022-11-09T04:55:36.491Z,7.89
2022-11-09T04:58:03.550Z,7.82
2022-11-09T05:00:30.489Z,7.90
2022-11-09T05:03:00.009Z,7.92
2022-11-09T05:05:27.032Z,7.91
2022-11-09T05:07:53.592Z,7.82
2022-11-09T05:10:21.492Z,7.77
2022-11-09T05:12:48.072Z,7.77
2022-11-09T05:15:14.664Z,7.88
2022-11-09T05:17:41.259Z,7.92
2022-11-09T05:20:08.794Z,7.92
2022-11-09T05:22:39.924Z,7.87
2022-11-09T05:25:07.081Z,7.92
2022-11-09T05:27:35.124Z,7.83
2022-11-09T05:30:01.701Z,7.86
2022-11-09T05:32:28.237Z,7.77
2022-11-09T05:34:54.768Z,7.69
2022-11-09T05:37:21.305Z,7.69
2022-11-09T05:39:48.004Z,7.68
2022-11-09T05:42:14.751Z,7.62
2022-11-09T05:44:42.647Z,7.48
2022-11-09T05:47:09.193Z,7.42
2022-11-09T05:49:35.749Z,7.49
2022-11-09T05:52:02.265Z,7.39
2022-11-09T05:54:28.787Z,7.51
2022-11-09T05:56:55.325Z,7.51
2022-11-09T05:59:21.887Z,7.42
2022-11-09T06:01:49.861Z,7.46
2022-11-09T06:04:16.444Z,7.38
2022-11-09T06:06:43.506Z,7.36
2022-11-09T06:09:10.115Z,7.42
2022-11-09T06:11:36.672Z,7.50
2022-11-09T06:14:03.231Z,7.49
2022-11-09T06:16:29.828Z,7.36
2022-11-09T06:18:57.741Z,7.37
2022-11-09T06:21:24.259Z,7.34
2022-11-09T06:23:50.789Z,7.46
2022-11-09T06:26:17.329Z,7.46
2022-11-09T06:28:43.894Z,7.46
2022-11-09T06:31:14.619Z,7.47
2022-11-09T06:33:41.444Z,7.41
2022-11-09T06:36:10.444Z,7.62
2022-11-09T06:38:36.996Z,7.52
2022-11-09T06:41:03.563Z,7.48
2022-11-09T06:43:30.122Z,7.59
2022-11-09T06:45:56.885Z,7.69
2022-11-09T06:48:23.676Z,7.70
2022-11-09T06:50:50.263Z,7.58
2022-11-09T06:53:18.882Z,7.51
2022-11-09T06:55:50.332Z,7.50
2022-11-09T06:58:17.911Z,7.40
2022-11-09T07:00:45.267Z,7.42
2022-11-09T07:03:14.683Z,7.45
2022-11-09T07:05:41.523Z,7.44
2022-11-09T07:08:08.049Z,7.41
2022-11-09T07:10:36.521Z,7.43
2022-11-09T07:13:03.146Z,7.49
2022-11-09T07:15:29.820Z,7.55
2022-11-09T07:17:56.733Z,7.56
2022-11-09T07:20:23.288Z,7.48
2022-11-09T07:22:50.352Z,7.64
2022-11-09T07:25:17.377Z,7.47
2022-11-09T07:27:45.465Z,7.53
2022-11-09T07:30:12.933Z,7.66
2022-11-09T07:33:07.473Z,7.70
2022-11-09T07:35:26.797Z,7.59
2022-11-09T07:37:53.354Z,7.47
2022-11-09T07:40:20.434Z,7.59
2022-11-09T07:42:48.346Z,7.70
2022-11-09T07:45:15.089Z,7.77
2022-11-09T07:47:41.650Z,7.78
2022-11-09T07:50:08.809Z,7.69
2022-11-09T07:52:35.327Z,7.74
2022-11-09T07:55:01.871Z,7.79
2022-11-09T07:57:28.472Z,7.87
2022-11-09T07:59:56.530Z,7.94
2022-11-09T08:02:23.128Z,7.97
2022-11-09T08:04:49.695Z,8.01
2022-11-09T08:07:16.264Z,7.94
2022-11-09T08:09:42.854Z,8.09
2022-11-09T08:12:09.393Z,8.25
2022-11-09T08:14:35.985Z,8.44
2022-11-09T08:17:03.908Z,8.55
2022-11-09T08:19:30.479Z,8.35
2022-11-09T08:21:57.066Z,8.42
2022-11-09T08:24:23.668Z,8.45
2022-11-09T08:26:50.224Z,8.46
2022-11-09T08:29:16.779Z,8.48
2022-11-09T08:31:43.380Z,8.44
2022-11-09T08:34:13.060Z,8.55
2022-11-09T08:36:39.630Z,8.51
2022-11-09T08:39:06.284Z,8.59
2022-11-09T08:41:32.841Z,8.65
2022-11-09T08:43:59.427Z,8.52
2022-11-09T08:46:26.081Z,8.56
2022-11-09T08:48:52.639Z,8.86
2022-11-09T08:51:20.670Z,8.89
2022-11-09T08:53:47.320Z,8.70
2022-11-09T08:56:13.891Z,8.93
2022-11-09T08:58:40.450Z,8.97
2022-11-09T09:01:12.288Z,9.30
2022-11-09T09:03:42.044Z,9.38
2022-11-09T09:06:08.853Z,9.51
2022-11-09T09:08:36.795Z,9.58
2022-11-09T09:11:03.802Z,9.68
2022-11-09T09:13:30.611Z,9.55
2022-11-09T09:15:57.291Z,9.45
2022-11-09T09:18:24.310Z,9.19
2022-11-09T09:20:50.956Z,9.29
2022-11-09T09:23:17.509Z,9.39
2022-11-09T09:25:45.437Z,9.53
2022-11-09T09:28:11.978Z,9.54
2022-11-09T09:30:38.580Z,9.71
2022-11-09T09:33:05.155Z,9.72
2022-11-09T09:35:31.716Z,9.60
2022-11-09T09:37:58.361Z,9.62
2022-11-09T09:40:30.532Z,9.61
2022-11-09T09:42:58.636Z,9.62
2022-11-09T09:45:29.844Z,9.60
2022-11-09T09:48:00.398Z,9.49
2022-11-09T09:50:29.991Z,9.57
2022-11-09T09:53:22.747Z,9.69
2022-11-09T09:55:53.062Z,9.84
2022-11-09T09:58:25.397Z,9.90
2022-11-09T10:00:54.795Z,9.92
2022-11-09T10:03:21.522Z,10.12
2022-11-09T10:05:56.951Z,10.21
2022-11-09T10:08:37.542Z,10.24
2022-11-09T10:11:14.635Z,10.48
2022-11-09T10:14:15.936Z,10.47
2022-11-09T10:16:51.924Z,10.55
2022-11-09T10:19:30.196Z,10.58
2022-11-09T10:22:05.517Z,10.43
2022-11-09T10:24:58.572Z,10.22
2022-11-09T10:27:35.352Z,10.19
2022-11-09T10:30:11.887Z,10.26
2022-11-09T10:32:38.919Z,10.31
2022-11-09T10:35:15.427Z,10.41
2022-11-09T10:37:43.706Z,10.50
2022-11-09T10:40:22.560Z,10.70
2022-11-09T10:42:50.695Z,10.73
2022-11-09T10:45:28.155Z,10.86
2022-11-09T10:47:55.169Z,10.93
2022-11-09T10:50:27.754Z,10.71
2022-11-09T10:53:08.398Z,10.85
2022-11-09T10:55:35.170Z,10.82
2022-11-09T10:58:11.714Z,10.90
2022-11-09T11:00:56.775Z,11.05
2022-11-09T11:03:24.759Z,10.76
2022-11-09T11:05:57.248Z,10.75
2022-11-09T11:08:31.276Z,10.82
2022-11-09T11:11:33.256Z,10.79
2022-11-09T11:14:12.505Z,10.99
2022-11-09T11:16:42.131Z,10.99
2022-11-09T11:19:35.528Z,10.96
2022-11-09T11:22:20.523Z,10.78
2022-11-09T11:24:53.745Z,10.82
2022-11-09T11:27:24.660Z,10.93
2022-11-09T11:29:55.985Z,11.01
2022-11-09T11:32:24.672Z,10.84
2022-11-09T11:35:00.400Z,10.83
2022-11-09T11:37:39.123Z,10.96
2022-11-09T11:40:13.217Z,11.08
2022-11-09T11:43:15.369Z,11.23
2022-11-09T11:45:44.190Z,11.20
2022-11-09T11:48:29.085Z,11.34
2022-11-09T11:51:02.049Z,11.51
2022-11-09T11:53:43.921Z,11.49
2022-11-09T11:56:22.275Z,11.59
2022-11-09T11:59:05.523Z,11.61
2022-11-09T12:01:44.108Z,11.39
2022-11-09T12:04:37.169Z,11.28
2022-11-09T12:07:14.810Z,11.21
2022-11-09T12:09:56.419Z,10.98
2022-11-09T12:12:33.428Z,10.83
2022-11-09T12:15:17.419Z,10.68
2022-11-09T12:17:54.696Z,10.66
2022-11-09T12:20:29.192Z,10.46
2022-11-09T12:23:15.180Z,10.34
2022-11-09T12:25:46.662Z,10.17
2022-11-09T12:28:27.549Z,10.12
2022-11-09T12:31:04.694Z,10.09
2022-11-09T12:33:43.487Z,9.85
2022-11-09T12:36:17.921Z,9.83
2022-11-09T12:38:54.423Z,9.66
2022-11-09T12:41:24.761Z,9.65
2022-11-09T12:43:56.267Z,9.66
2022-11-09T12:46:30.717Z,9.77
2022-11-09T12:49:01.743Z,9.90
2022-11-09T12:51:30.724Z,9.98
2022-11-09T12:53:58.935Z,9.96
2022-11-09T12:56:29.344Z,9.95
2022-11-09T12:59:19.853Z,10.07
2022-11-09T13:01:52.536Z,10.13
2022-11-09T13:04:21.755Z,10.20
2022-11-09T13:07:19.701Z,10.00
2022-11-09T13:09:54.094Z,10.12
2022-11-09T13:12:32.103Z,10.21
2022-11-09T13:15:13.179Z,10.05
2022-11-09T13:17:58.805Z,10.09
2022-11-09T13:20:55.512Z,10.12
2022-11-09T13:23:59.244Z,10.11
2022-11-09T13:26:24.953Z,10.09
2022-11-09T13:29:07.830Z,10.20
2022-11-09T13:32:20.285Z,10.26
2022-11-09T13:34:48.151Z,10.32
2022-11-09T13:37:47.313Z,10.25
2022-11-09T13:40:41.244Z,10.31
2022-11-09T13:43:19.765Z,10.33
2022-11-09T13:45:49.420Z,10.30
2022-11-09T13:48:39.419Z,10.36
2022-11-09T13:51:08.689Z,10.24
2022-11-09T13:53:53.592Z,10.26
2022-11-09T13:56:28.135Z,10.13
2022-11-09T13:58:57.434Z,10.06
2022-11-09T14:01:37.049Z,10.24
2022-11-09T14:04:05.147Z,10.21
2022-11-09T14:06:33.155Z,10.24
2022-11-09T14:09:00.981Z,10.10
2022-11-09T14:11:57.700Z,10.01
2022-11-09T14:14:44.681Z,9.90
2022-11-09T14:17:20.690Z,10.02
2022-11-09T14:19:58.441Z,10.20
2022-11-09T14:22:25.042Z,10.14
2022-11-09T14:24:51.642Z,10.03
2022-11-09T14:27:21.510Z,10.01
2022-11-09T14:29:51.486Z,10.02
2022-11-09T14:32:30.005Z,9.96
2022-11-09T14:35:21.470Z,10.08
2022-11-09T14:37:48.665Z,9.98
2022-11-09T14:40:20.330Z,10.03
2022-11-09T14:42:51.893Z,10.09
2022-11-09T14:45:19.341Z,9.97
2022-11-09T14:47:48.513Z,9.93
2022-11-09T14:50:19.871Z,9.98
2022-11-09T14:52:47.051Z,10.11
2022-11-09T14:55:15.975Z,10.05
2022-11-09T14:57:44.146Z,9.83
2022-11-09T15:00:44.685Z,9.76
2022-11-09T15:03:23.723Z,9.68
2022-11-09T15:05:50.688Z,9.79
2022-11-09T15:08:21.329Z,9.74
2022-11-09T15:10:49.473Z,9.58
2022-11-09T15:13:16.378Z,9.58
2022-11-09T15:15:50.886Z,9.52
2022-11-09T15:18:20.782Z,9.41
2022-11-09T15:20:47.700Z,9.38
2022-11-09T15:23:37.205Z,9.39
2022-11-09T15:26:03.849Z,9.34
2022-11-09T15:28:31.370Z,9.28
2022-11-09T15:31:13.564Z,9.25
2022-11-09T15:33:46.132Z,9.27
2022-11-09T15:36:29.289Z,9.19
2022-11-09T15:39:00.764Z,9.14
2022-11-09T15:41:28.165Z,9.07
2022-11-09T15:43:55.039Z,9.10
2022-11-09T15:46:25.431Z,9.04
2022-11-09T15:48:52.228Z,9.08
2022-11-09T15:51:19.431Z,8.89
2022-11-09T15:53:46.090Z,8.76
2022-11-09T15:56:17.276Z,8.73
2022-11-09T15:58:44.618Z,8.66
2022-11-09T16:01:11.315Z,8.64
2022-11-09T16:03:39.234Z,8.73
2022-11-09T16:06:06.269Z,8.78
2022-11-09T16:08:32.831Z,8.73
2022-11-09T16:11:03.425Z,8.75
2022-11-09T16:13:29.978Z,8.67
2022-11-09T16:16:02.293Z,8.74
2022-11-09T16:18:29.130Z,8.74
2022-11-09T16:20:57.350Z,8.72
2022-11-09T16:23:24.077Z,8.75
2022-11-09T16:25:50.619Z,8.72
2022-11-09T16:28:17.447Z,8.67
2022-11-09T16:30:46.811Z,8.65
2022-11-09T16:33:13.725Z,8.61
2022-11-09T16:35:40.357Z,8.57
2022-11-09T16:38:08.460Z,8.53
2022-11-09T16:40:37.081Z,8.48
2022-11-09T16:43:03.852Z,8.55
2022-11-09T16:45:33.334Z,8.58
2022-11-09T16:48:03.785Z,8.60
2022-11-09T16:50:30.505Z,8.61
2022-11-09T16:52:57.068Z,8.56
2022-11-09T16:55:25.094Z,8.50
2022-11-09T16:57:51.643Z,8.49
2022-11-09T17:00:18.614Z,8.57
2022-11-09T17:02:45.185Z,8.44
2022-11-09T17:05:11.709Z,8.56
2022-11-09T17:07:42.555Z,8.56
2022-11-09T17:10:10.797Z,8.51
2022-11-09T17:12:38.932Z,8.46
2022-11-09T17:15:06.641Z,8.48
2022-11-09T17:17:33.260Z,8.44
2022-11-09T17:19:59.837Z,8.40
2022-11-09T17:22:26.376Z,8.50
2022-11-09T17:24:52.944Z,8.45
2022-11-09T17:27:19.509Z,8.41
2022-11-09T17:29:47.589Z,8.42
2022-11-09T17:32:14.473Z,8.47
2022-11-09T17:34:41.053Z,8.49
2022-11-09T17:37:07.603Z,8.61
2022-11-09T17:39:34.157Z,8.60
2022-11-09T17:42:00.728Z,8.62
2022-11-09T17:44:27.293Z,8.53
2022-11-09T17:46:55.261Z,8.54
2022-11-09T17:49:21.797Z,8.63
2022-11-09T17:51:48.381Z,8.54
2022-11-09T17:54:15.231Z,8.57
2022-11-09T17:56:41.914Z,8.55
2022-11-09T17:59:08.460Z,8.70
2022-11-09T18:01:40.512Z,8.67
2022-11-09T18:04:10.481Z,8.66
2022-11-09T18:06:38.018Z,8.65
2022-11-09T18:09:40.128Z,8.63
2022-11-09T18:11:51.620Z,8.59
2022-11-09T18:14:18.444Z,8.62
2022-11-09T18:16:45.019Z,8.66
2022-11-09T18:19:13.046Z,8.66
2022-11-09T18:21:39.635Z,8.73
2022-11-09T18:24:07.132Z,8.69
2022-11-09T18:26:33.720Z,8.67
2022-11-09T18:29:00.320Z,8.61
2022-11-09T18:31:27.164Z,8.60
2022-11-09T18:33:53.696Z,8.60
2022-11-09T18:36:22.390Z,8.61
2022-11-09T18:38:49.257Z,8.61
2022-11-09T18:41:17.735Z,8.62
2022-11-09T18:43:44.651Z,8.69
2022-11-09T18:46:13.108Z,8.74
2022-11-09T18:48:39.734Z,8.70
2022-11-09T18:51:07.982Z,8.82
2022-11-09T18:53:37.986Z,8.77
2022-11-09T18:56:07.158Z,8.74
2022-11-09T18:58:34.667Z,8.79
2022-11-09T19:01:03.370Z,8.92
2022-11-09T19:03:30.350Z,8.93
2022-11-09T19:05:57.132Z,8.91
2022-11-09T19:08:24.284Z,8.94
2022-11-09T19:10:52.610Z,9.02
2022-11-09T19:13:19.165Z,9.10
2022-11-09T19:15:45.996Z,9.02
2022-11-09T19:18:12.544Z,8.95
2022-11-09T19:20:39.112Z,8.87
2022-11-09T19:23:05.716Z,8.92
2022-11-09T19:25:32.249Z,8.87
2022-11-09T19:28:00.180Z,8.85
2022-11-09T19:30:26.711Z,8.85
2022-11-09T19:32:53.267Z,8.87
2022-11-09T19:35:25.611Z,8.95
2022-11-09T19:37:53.952Z,8.95
2022-11-09T19:40:21.111Z,8.90
2022-11-09T19:42:47.674Z,8.94
2022-11-09T19:45:16.080Z,9.12
2022-11-09T19:47:42.853Z,9.07
2022-11-09T19:50:09.653Z,9.05
2022-11-09T19:52:36.235Z,9.06
2022-11-09T19:55:03.093Z,9.09
2022-11-09T19:57:29.649Z,9.14
2022-11-09T19:59:56.300Z,9.11
2022-11-09T20:02:24.581Z,9.04
2022-11-09T20:04:51.163Z,9.01
2022-11-09T20:07:18.209Z,9.04
2022-11-09T20:09:44.772Z,9.00
2022-11-09T20:12:11.944Z,8.94
2022-11-09T20:14:38.488Z,8.97
2022-11-09T20:17:05.065Z,9.10
2022-11-09T20:19:32.977Z,9.02
2022-11-09T20:21:59.764Z,9.09
2022-11-09T20:24:26.309Z,8.99
2022-11-09T20:26:52.863Z,8.89
2022-11-09T20:29:19.402Z,8.88
2022-11-09T20:31:46.128Z,8.84
2022-11-09T20:34:12.714Z,8.77
2022-11-09T20:36:40.604Z,8.75
2022-11-09T20:39:07.164Z,8.78
2022-11-09T20:41:33.722Z,8.94
2022-11-09T20:44:00.292Z,9.08
2022-11-09T20:46:30.000Z,9.06
2022-11-09T20:49:01.080Z,9.01
2022-11-09T20:51:27.943Z,9.08
2022-11-09T20:53:55.849Z,9.11
2022-11-09T20:56:22.393Z,8.95
2022-11-09T20:58:48.964Z,8.89
2022-11-09T21:01:17.539Z,8.87
2022-11-09T21:03:45.429Z,8.87
2022-11-09T21:06:13.249Z,8.88
2022-11-09T21:08:43.217Z,8.88
2022-11-09T21:11:11.434Z,8.91
2022-11-09T21:13:38.208Z,8.88
2022-11-09T21:16:06.150Z,8.88
2022-11-09T21:18:32.815Z,8.87
2022-11-09T21:21:04.352Z,9.22
2022-11-09T21:23:31.050Z,9.07
2022-11-09T21:26:00.039Z,9.09
2022-11-09T21:28:29.085Z,9.20
2022-11-09T21:31:00.101Z,9.09
2022-11-09T21:33:26.638Z,9.01
2022-11-09T21:35:53.184Z,9.04
2022-11-09T21:38:20.028Z,9.04
2022-11-09T21:40:46.886Z,9.01
2022-11-09T21:43:13.521Z,8.90
2022-11-09T21:45:41.467Z,9.04
2022-11-09T21:48:08.361Z,9.02
2022-11-09T21:50:35.025Z,8.99
2022-11-09T21:53:01.846Z,9.00
2022-11-09T21:55:28.415Z,8.98
2022-11-09T21:57:54.978Z,8.94
2022-11-09T22:00:21.776Z,8.95
2022-11-09T22:02:49.661Z,9.00
2022-11-09T22:05:21.765Z,9.06
2022-11-09T22:07:49.403Z,8.99
2022-11-09T22:10:16.272Z,8.98
2022-11-09T22:12:42.807Z,8.96
2022-11-09T22:15:10.055Z,8.96
2022-11-09T22:17:36.577Z,8.91
2022-11-09T22:20:05.350Z,9.07
2022-11-09T22:22:32.024Z,9.29
2022-11-09T22:24:58.590Z,9.29
2022-11-09T22:27:25.238Z,9.21
2022-11-09T22:29:51.954Z,9.16
2022-11-09T22:32:18.490Z,9.22
2022-11-09T22:34:45.094Z,9.15
2022-11-09T22:37:13.016Z,8.96
2022-11-09T22:39:44.363Z,8.92
2022-11-09T22:42:13.624Z,8.90
2022-11-09T22:44:40.193Z,8.97
2022-11-09T22:47:06.730Z,8.96
2022-11-09T22:49:33.311Z,9.00
2022-11-09T22:51:59.874Z,9.06
2022-11-09T22:54:27.803Z,9.07
2022-11-09T22:56:54.354Z,9.18
2022-11-09T22:59:20.899Z,9.26
2022-11-09T23:01:47.475Z,9.21
2022-11-09T23:04:14.065Z,9.18
2022-11-09T23:06:40.690Z,9.29
2022-11-09T23:09:07.430Z,9.24
2022-11-09T23:11:35.401Z,9.21
2022-11-09T23:14:01.964Z,9.13
2022-11-09T23:16:28.606Z,9.07
2022-11-09T23:18:56.348Z,9.10
2022-11-09T23:21:25.982Z,9.04
2022-11-09T23:23:55.004Z,9.01
2022-11-09T23:26:22.547Z,9.06
2022-11-09T23:28:50.749Z,9.10
2022-11-09T23:31:19.126Z,9.09
2022-11-09T23:33:47.794Z,9.13
2022-11-09T23:36:14.361Z,9.16
2022-11-09T23:38:40.891Z,9.38
2022-11-09T23:41:08.876Z,9.34
2022-11-09T23:43:36.325Z,9.32
2022-11-09T23:46:06.152Z,9.36
2022-11-09T23:48:32.910Z,9.42
2022-11-09T23:51:00.483Z,9.45
2022-11-09T23:53:28.438Z,9.57
2022-11-09T23:55:55.082Z,9.48
2022-11-09T23:58:21.645Z,9.58
